sensor_id;sensor_type;location;lat;lon;timestamp;pressure;altitude;pressure_sealevel;temperature;humidity
56514;BME280;62152;52.078;8.414;2023-03-20T00:03:06;100324.78;;;18.39;52.87
56514;BME280;62152;52.078;8.414;2023-03-20T00:07:06;100327.53;;;18.39;53.18
56514;BME280;62152;52.078;8.414;2023-03-20T00:11:24;100327.53;;;18.39;53.34
56514;BME280;62152;52.078;8.414;2023-03-20T00:15:33;100342.44;;;18.38;53.05
56514;BME280;62152;52.078;8.414;2023-03-20T00:19:36;100342.44;;;18.38;52.77
56514;BME280;62152;52.078;8.414;2023-03-20T00:23:37;100347.91;;;18.38;53.33
56514;BME280;62152;52.078;8.414;2023-03-20T00:27:38;100342.44;;;18.38;52.71
56514;BME280;62152;52.078;8.414;2023-03-20T00:31:40;100336.94;;;18.38;52.72
56514;BME280;62152;52.078;8.414;2023-03-20T00:35:41;100339.25;;;18.36;52.81
56514;BME280;62152;52.078;8.414;2023-03-20T00:39:42;100336.16;;;18.37;53.33
56514;BME280;62152;52.078;8.414;2023-03-20T00:43:42;100334.56;;;18.36;52.83
56514;BME280;62152;52.078;8.414;2023-03-20T00:47:48;100336.50;;;18.36;52.75
56514;BME280;62152;52.078;8.414;2023-03-20T00:51:50;100333.78;;;18.36;53.07
56514;BME280;62152;52.078;8.414;2023-03-20T00:55:51;100331.81;;;18.36;53.11
56514;BME280;62152;52.078;8.414;2023-03-20T00:59:56;100337.31;;;18.36;53.19
56514;BME280;62152;52.078;8.414;2023-03-20T01:04:01;100339.25;;;18.36;53.01
56514;BME280;62152;52.078;8.414;2023-03-20T01:08:05;100339.25;;;18.36;52.87
56514;BME280;62152;52.078;8.414;2023-03-20T01:12:11;100327.47;;;18.35;52.74
56514;BME280;62152;52.078;8.414;2023-03-20T01:16:19;100323.94;;;18.35;53.11
56514;BME280;62152;52.078;8.414;2023-03-20T01:20:26;100331.41;;;18.34;52.91
56514;BME280;62152;52.078;8.414;2023-03-20T01:24:28;100329.44;;;18.35;52.83
56514;BME280;62152;52.078;8.414;2023-03-20T01:28:30;100337.69;;;18.35;52.88
56514;BME280;62152;52.078;8.414;2023-03-20T01:32:31;100343.16;;;18.35;52.94
56514;BME280;62152;52.078;8.414;2023-03-20T01:36:33;100354.16;;;18.35;52.50
56514;BME280;62152;52.078;8.414;2023-03-20T01:40:44;100359.66;;;18.35;53.22
56514;BME280;62152;52.078;8.414;2023-03-20T01:44:50;100358.84;;;18.34;53.30
56514;BME280;62152;52.078;8.414;2023-03-20T01:49:04;100369.03;;;18.34;53.26
56514;BME280;62152;52.078;8.414;2023-03-20T01:53:14;100387.09;;;18.35;52.99
56514;BME280;62152;52.078;8.414;2023-03-20T01:57:24;100386.31;;;18.34;52.88
56514;BME280;62152;52.078;8.414;2023-03-20T02:01:26;100388.28;;;18.34;52.80
56514;BME280;62152;52.078;8.414;2023-03-20T02:05:30;100383.94;;;18.33;53.31
56514;BME280;62152;52.078;8.414;2023-03-20T02:09:33;100376.50;;;18.33;53.05
56514;BME280;62152;52.078;8.414;2023-03-20T02:13:35;100378.44;;;18.33;53.19
56514;BME280;62152;52.078;8.414;2023-03-20T02:17:37;100380.03;;;18.34;53.06
56514;BME280;62152;52.078;8.414;2023-03-20T02:26:44;100365.50;;;18.33;53.09
56514;BME280;62152;52.078;8.414;2023-03-20T02:31:25;100362.75;;;18.33;53.21
56514;BME280;62152;52.078;8.414;2023-03-20T02:36:18;100356.47;;;18.33;53.03
56514;BME280;62152;52.078;8.414;2023-03-20T02:40:55;100360.34;;;18.31;52.83
56514;BME280;62152;52.078;8.414;2023-03-20T02:45:15;100355.66;;;18.32;52.84
56514;BME280;62152;52.078;8.414;2023-03-20T02:49:39;100354.88;;;18.31;52.96
56514;BME280;62152;52.078;8.414;2023-03-20T02:54:06;100361.16;;;18.32;52.99
56514;BME280;62152;52.078;8.414;2023-03-20T02:58:19;100361.16;;;18.32;52.67
56514;BME280;62152;52.078;8.414;2023-03-20T03:02:32;100371.34;;;18.31;53.24
56514;BME280;62152;52.078;8.414;2023-03-20T03:06:41;100372.13;;;18.32;52.66
56514;BME280;62152;52.078;8.414;2023-03-20T03:10:50;100380.75;;;18.30;52.75
56514;BME280;62152;52.078;8.414;2023-03-20T03:15:03;100376.84;;;18.31;52.55
56514;BME280;62152;52.078;8.414;2023-03-20T03:19:13;100383.13;;;18.32;52.86
56514;BME280;62152;52.078;8.414;2023-03-20T03:23:24;100374.88;;;18.32;52.74
56514;BME280;62152;52.078;8.414;2023-03-20T03:27:35;100375.25;;;18.30;52.68
56514;BME280;62152;52.078;8.414;2023-03-20T03:31:40;100374.44;;;18.30;52.64
56514;BME280;62152;52.078;8.414;2023-03-20T03:35:43;100378.00;;;18.30;53.30
56514;BME280;62152;52.078;8.414;2023-03-20T03:39:50;100373.66;;;18.29;53.02
56514;BME280;62152;52.078;8.414;2023-03-20T03:44:06;100362.69;;;18.29;53.03
56514;BME280;62152;52.078;8.414;2023-03-20T03:48:18;100350.53;;;18.30;52.76
56514;BME280;62152;52.078;8.414;2023-03-20T03:52:23;100348.94;;;18.29;53.01
56514;BME280;62152;52.078;8.414;2023-03-20T03:56:30;100353.66;;;18.29;53.43
56514;BME280;62152;52.078;8.414;2023-03-20T04:00:34;100332.47;;;18.29;53.10
56514;BME280;62152;52.078;8.414;2023-03-20T04:04:47;100339.13;;;18.28;53.19
56514;BME280;62152;52.078;8.414;2023-03-20T04:08:51;100328.16;;;18.28;52.69
56514;BME280;62152;52.078;8.414;2023-03-20T04:12:52;100324.25;;;18.29;53.24
56514;BME280;62152;52.078;8.414;2023-03-20T04:16:52;100320.69;;;18.29;52.65
56514;BME280;62152;52.078;8.414;2023-03-20T04:20:55;100318.31;;;18.27;53.08
56514;BME280;62152;52.078;8.414;2023-03-20T04:24:56;100323.44;;;18.29;53.06
56514;BME280;62152;52.078;8.414;2023-03-20T04:28:59;100329.72;;;18.29;52.60
56514;BME280;62152;52.078;8.414;2023-03-20T04:33:12;100321.06;;;18.27;52.79
56514;BME280;62152;52.078;8.414;2023-03-20T04:37:25;100310.88;;;18.28;53.13
56514;BME280;62152;52.078;8.414;2023-03-20T04:41:35;100321.06;;;18.27;52.77
56514;BME280;62152;52.078;8.414;2023-03-20T04:45:36;100312.47;;;18.29;53.11
56514;BME280;62152;52.078;8.414;2023-03-20T04:49:43;100321.06;;;18.27;52.70
56514;BME280;62152;52.078;8.414;2023-03-20T04:53:45;100326.56;;;18.27;52.92
56514;BME280;62152;52.078;8.414;2023-03-20T04:57:47;100331.25;;;18.27;53.16
56514;BME280;62152;52.078;8.414;2023-03-20T05:01:48;100317.16;;;18.28;52.65
56514;BME280;62152;52.078;8.414;2023-03-20T05:05:49;100317.81;;;18.22;53.15
56514;BME280;62152;52.078;8.414;2023-03-20T05:09:51;100322.41;;;17.75;52.53
56514;BME280;62152;52.078;8.414;2023-03-20T05:13:53;100313.59;;;17.86;51.58
56514;BME280;62152;52.078;8.414;2023-03-20T05:18:12;100313.59;;;18.05;52.06
56514;BME280;62152;52.078;8.414;2023-03-20T05:22:28;100321.59;;;18.14;51.36
56514;BME280;62152;52.078;8.414;2023-03-20T05:26:44;100323.59;;;18.17;51.48
56514;BME280;62152;52.078;8.414;2023-03-20T05:31:13;100333.94;;;18.23;51.51
56514;BME280;62152;52.078;8.414;2023-03-20T05:35:37;100330.41;;;18.23;51.34
56514;BME280;62152;52.078;8.414;2023-03-20T05:39:49;100344.91;;;18.23;51.25
56514;BME280;62152;52.078;8.414;2023-03-20T05:44:00;100340.59;;;18.22;51.66
56514;BME280;62152;52.078;8.414;2023-03-20T05:48:21;100340.59;;;18.22;52.06
56514;BME280;62152;52.078;8.414;2023-03-20T05:52:46;100335.09;;;18.22;51.40
56514;BME280;62152;52.078;8.414;2023-03-20T05:56:55;100330.75;;;18.21;51.99
56514;BME280;62152;52.078;8.414;2023-03-20T06:01:22;100333.50;;;18.21;51.59
56514;BME280;62152;52.078;8.414;2023-03-20T06:05:52;100345.69;;;18.24;51.73
56514;BME280;62152;52.078;8.414;2023-03-20T06:09:53;100353.16;;;18.23;51.66
56514;BME280;62152;52.078;8.414;2023-03-20T06:13:55;100343.31;;;18.22;51.77
56514;BME280;62152;52.078;8.414;2023-03-20T06:17:59;100346.88;;;18.23;52.30
56514;BME280;62152;52.078;8.414;2023-03-20T06:22:01;100344.91;;;18.23;51.66
56514;BME280;62152;52.078;8.414;2023-03-20T06:26:04;100346.50;;;18.24;52.04
56514;BME280;62152;52.078;8.414;2023-03-20T06:30:17;100340.22;;;18.24;51.81
56514;BME280;62152;52.078;8.414;2023-03-20T06:34:21;100345.69;;;18.24;52.07
56514;BME280;62152;52.078;8.414;2023-03-20T06:38:22;100349.25;;;18.24;52.51
56514;BME280;62152;52.078;8.414;2023-03-20T06:42:24;100342.16;;;18.23;52.23
56514;BME280;62152;52.078;8.414;2023-03-20T06:46:25;100346.50;;;18.24;52.22
56514;BME280;62152;52.078;8.414;2023-03-20T06:50:28;100357.47;;;18.24;52.04
56514;BME280;62152;52.078;8.414;2023-03-20T06:54:30;100359.09;;;18.25;52.11
56514;BME280;62152;52.078;8.414;2023-03-20T06:58:31;100367.31;;;18.25;51.95
56514;BME280;62152;52.078;8.414;2023-03-20T07:02:32;100367.31;;;18.25;52.25
56514;BME280;62152;52.078;8.414;2023-03-20T07:06:34;100374.75;;;18.25;52.64
56514;BME280;62152;52.078;8.414;2023-03-20T07:10:35;100371.19;;;18.24;52.54
56514;BME280;62152;52.078;8.414;2023-03-20T07:14:36;100382.19;;;18.24;52.53
56514;BME280;62152;52.078;8.414;2023-03-20T07:18:41;100394.78;;;18.25;52.17
56514;BME280;62152;52.078;8.414;2023-03-20T07:22:43;100401.84;;;18.26;52.16
56514;BME280;62152;52.078;8.414;2023-03-20T07:26:54;100401.84;;;18.26;52.28
56514;BME280;62152;52.078;8.414;2023-03-20T07:30:55;100395.22;;;18.27;52.14
56514;BME280;62152;52.078;8.414;2023-03-20T07:34:58;100394.03;;;18.28;52.19
56514;BME280;62152;52.078;8.414;2023-03-20T07:39:03;100404.22;;;18.28;52.55
56514;BME280;62152;52.078;8.414;2023-03-20T07:43:06;100403.44;;;18.27;52.28
56514;BME280;62152;52.078;8.414;2023-03-20T07:47:27;100414.06;;;18.29;52.05
56514;BME280;62152;52.078;8.414;2023-03-20T07:51:28;100421.94;;;18.30;52.70
56514;BME280;62152;52.078;8.414;2023-03-20T07:55:30;100410.16;;;18.30;52.26
56514;BME280;62152;52.078;8.414;2023-03-20T07:59:31;100418.03;;;18.31;52.15
56514;BME280;62152;52.078;8.414;2023-03-20T08:03:31;100418.81;;;18.32;52.03
56514;BME280;62152;52.078;8.414;2023-03-20T08:07:32;100416.88;;;18.33;52.39
56514;BME280;62152;52.078;8.414;2023-03-20T08:11:35;100419.63;;;18.33;52.11
56514;BME280;62152;52.078;8.414;2023-03-20T08:15:35;100421.22;;;18.34;52.48
56514;BME280;62152;52.078;8.414;2023-03-20T08:19:36;100420.06;;;18.35;52.38
56514;BME280;62152;52.078;8.414;2023-03-20T08:23:37;100419.63;;;18.33;52.37
56514;BME280;62152;52.078;8.414;2023-03-20T08:27:39;100428.28;;;18.35;51.94
56514;BME280;62152;52.078;8.414;2023-03-20T08:31:40;100431.84;;;18.35;52.41
56514;BME280;62152;52.078;8.414;2023-03-20T08:35:41;100435.38;;;18.36;52.03
56514;BME280;62152;52.078;8.414;2023-03-20T08:39:42;100440.50;;;18.37;52.51
56514;BME280;62152;52.078;8.414;2023-03-20T08:43:45;100436.16;;;18.36;52.52
56514;BME280;62152;52.078;8.414;2023-03-20T08:47:46;100429.13;;;18.39;51.75
56514;BME280;62152;52.078;8.414;2023-03-20T08:51:47;100427.56;;;18.38;52.07
56514;BME280;62152;52.078;8.414;2023-03-20T08:55:47;100413.50;;;18.39;51.92
56514;BME280;62152;52.078;8.414;2023-03-20T08:59:50;100420.09;;;18.38;52.00
56514;BME280;62152;52.078;8.414;2023-03-20T09:03:51;100435.47;;;18.39;52.33
56514;BME280;62152;52.078;8.414;2023-03-20T09:07:51;100436.59;;;18.38;52.41
56514;BME280;62152;52.078;8.414;2023-03-20T09:11:52;100434.63;;;18.39;51.88
56514;BME280;62152;52.078;8.414;2023-03-20T09:15:55;100438.53;;;18.38;52.07
56514;BME280;62152;52.078;8.414;2023-03-20T09:19:57;100443.69;;;18.39;52.36
56514;BME280;62152;52.078;8.414;2023-03-20T09:23:57;100435.78;;;18.38;52.08
56514;BME280;62152;52.078;8.414;2023-03-20T09:27:58;100437.38;;;18.39;51.92
56514;BME280;62152;52.078;8.414;2023-03-20T09:32:01;100452.28;;;18.38;52.18
56514;BME280;62152;52.078;8.414;2023-03-20T09:36:01;100447.22;;;18.40;52.10
56514;BME280;62152;52.078;8.414;2023-03-20T09:40:03;100451.13;;;18.39;51.86
56514;BME280;62152;52.078;8.414;2023-03-20T09:44:14;100453.53;;;18.40;52.07
56514;BME280;62152;52.078;8.414;2023-03-20T09:48:33;100449.97;;;18.40;52.07
56514;BME280;62152;52.078;8.414;2023-03-20T09:52:44;100453.53;;;18.40;52.36
56514;BME280;62152;52.078;8.414;2023-03-20T09:56:56;100460.59;;;18.41;52.19
56514;BME280;62152;52.078;8.414;2023-03-20T10:00:59;100452.34;;;18.41;52.71
56514;BME280;62152;52.078;8.414;2023-03-20T10:05:16;100451.13;;;18.39;52.23
56514;BME280;62152;52.078;8.414;2023-03-20T10:09:23;100443.69;;;18.39;52.03
56514;BME280;62152;52.078;8.414;2023-03-20T10:13:47;100457.47;;;18.43;52.28
56514;BME280;62152;52.078;8.414;2023-03-20T10:18:07;100451.56;;;18.41;52.64
56514;BME280;62152;52.078;8.414;2023-03-20T10:22:21;100451.13;;;18.39;52.09
56514;BME280;62152;52.078;8.414;2023-03-20T10:26:23;100449.97;;;18.40;52.29
56514;BME280;62152;52.078;8.414;2023-03-20T10:30:37;100439.06;;;18.43;51.89
56514;BME280;62152;52.078;8.414;2023-03-20T10:35:05;100439.84;;;18.44;52.02
56514;BME280;62152;52.078;8.414;2023-03-20T10:39:26;100437.09;;;18.44;52.51
56514;BME280;62152;52.078;8.414;2023-03-20T10:43:37;100418.66;;;18.44;52.19
56514;BME280;62152;52.078;8.414;2023-03-20T10:47:43;100419.47;;;18.45;52.42
56514;BME280;62152;52.078;8.414;2023-03-20T10:51:52;100408.91;;;18.47;51.99
56514;BME280;62152;52.078;8.414;2023-03-20T10:56:04;100410.06;;;18.46;52.00
56514;BME280;62152;52.078;8.414;2023-03-20T11:00:13;100409.34;;;18.49;52.33
56514;BME280;62152;52.078;8.414;2023-03-20T11:04:18;100400.75;;;18.50;51.96
56514;BME280;62152;52.078;8.414;2023-03-20T11:08:22;100404.28;;;18.51;51.75
56514;BME280;62152;52.078;8.414;2023-03-20T11:12:32;100388.97;;;18.50;51.79
56514;BME280;62152;52.078;8.414;2023-03-20T11:16:34;100400.75;;;18.50;51.97
56514;BME280;62152;52.078;8.414;2023-03-20T11:20:38;100402.69;;;18.50;52.24
56514;BME280;62152;52.078;8.414;2023-03-20T11:24:46;100392.56;;;18.54;52.19
56514;BME280;62152;52.078;8.414;2023-03-20T11:28:55;100387.44;;;18.52;52.10
56514;BME280;62152;52.078;8.414;2023-03-20T11:32:58;100386.63;;;18.52;51.87
56514;BME280;62152;52.078;8.414;2023-03-20T11:37:00;100390.16;;;18.52;51.82
56514;BME280;62152;52.078;8.414;2023-03-20T11:41:16;100382.75;;;18.53;51.86
56514;BME280;62152;52.078;8.414;2023-03-20T11:45:21;100381.59;;;18.54;51.80
56514;BME280;62152;52.078;8.414;2023-03-20T11:49:24;100376.09;;;18.54;52.11
56514;BME280;62152;52.078;8.414;2023-03-20T11:53:30;100369.03;;;18.53;52.46
56514;BME280;62152;52.078;8.414;2023-03-20T11:57:36;100374.94;;;18.55;52.11
56514;BME280;62152;52.078;8.414;2023-03-20T12:01:43;100363.56;;;18.56;52.32
56514;BME280;62152;52.078;8.414;2023-03-20T12:05:46;100368.28;;;18.56;52.01
56514;BME280;62152;52.078;8.414;2023-03-20T12:09:51;100365.91;;;18.54;52.29
56514;BME280;62152;52.078;8.414;2023-03-20T12:14:00;100362.38;;;18.54;51.78
56514;BME280;62152;52.078;8.414;2023-03-20T12:18:11;100367.06;;;18.53;51.83
56514;BME280;62152;52.078;8.414;2023-03-20T12:22:22;100367.06;;;18.53;51.70
56514;BME280;62152;52.078;8.414;2023-03-20T12:26:32;100371.78;;;18.53;51.90
56514;BME280;62152;52.078;8.414;2023-03-20T12:30:53;100375.66;;;18.52;52.46
56514;BME280;62152;52.078;8.414;2023-03-20T12:35:12;100372.91;;;18.52;51.84
56514;BME280;62152;52.078;8.414;2023-03-20T12:39:18;100364.25;;;18.50;52.16
56514;BME280;62152;52.078;8.414;2023-03-20T12:43:24;100368.56;;;18.51;52.16
56514;BME280;62152;52.078;8.414;2023-03-20T12:52:14;100357.16;;;18.49;52.44
56514;BME280;62152;52.078;8.414;2023-03-20T12:56:41;100360.69;;;18.49;51.79
56514;BME280;62152;52.078;8.414;2023-03-20T13:01:01;100358.81;;;18.53;51.78
56514;BME280;62152;52.078;8.414;2023-03-20T13:05:27;100352.88;;;18.51;51.73
56514;BME280;62152;52.078;8.414;2023-03-20T13:10:02;100353.25;;;18.50;52.53
56514;BME280;62152;52.078;8.414;2023-03-20T13:14:19;100356.78;;;18.50;52.09
56514;BME280;62152;52.078;8.414;2023-03-20T13:18:36;100362.28;;;18.50;52.17
56514;BME280;62152;52.078;8.414;2023-03-20T13:22:51;100359.91;;;18.49;52.13
56514;BME280;62152;52.078;8.414;2023-03-20T13:27:13;100358.31;;;18.48;52.15
56514;BME280;62152;52.078;8.414;2023-03-20T13:31:33;100357.53;;;18.47;52.66
56514;BME280;62152;52.078;8.414;2023-03-20T13:35:53;100355.13;;;18.46;52.18
56514;BME280;62152;52.078;8.414;2023-03-20T13:40:03;100356.00;;;18.50;52.13
56514;BME280;62152;52.078;8.414;2023-03-20T13:44:15;100350.13;;;18.51;51.85
56514;BME280;62152;52.078;8.414;2023-03-20T13:48:28;100340.69;;;18.49;52.55
56514;BME280;62152;52.078;8.414;2023-03-20T13:52:39;100339.09;;;18.48;52.46
56514;BME280;62152;52.078;8.414;2023-03-20T13:56:55;100335.56;;;18.47;51.99
56514;BME280;62152;52.078;8.414;2023-03-20T14:01:07;100325.41;;;18.51;52.42
56514;BME280;62152;52.078;8.414;2023-03-20T14:05:18;100320.28;;;18.50;51.77
56514;BME280;62152;52.078;8.414;2023-03-20T14:09:29;100318.72;;;18.49;52.28
56514;BME280;62152;52.078;8.414;2023-03-20T14:13:33;100324.63;;;18.51;51.99
56514;BME280;62152;52.078;8.414;2023-03-20T14:17:42;100318.34;;;18.50;51.94
56514;BME280;62152;52.078;8.414;2023-03-20T14:21:47;100320.72;;;18.52;52.30
56514;BME280;62152;52.078;8.414;2023-03-20T14:25:53;100340.31;;;18.50;52.50
56514;BME280;62152;52.078;8.414;2023-03-20T14:29:54;100328.16;;;18.51;52.06
56514;BME280;62152;52.078;8.414;2023-03-20T14:34:11;100324.19;;;18.49;52.07
56514;BME280;62152;52.078;8.414;2023-03-20T14:38:24;100327.31;;;18.47;52.23
56514;BME280;62152;52.078;8.414;2023-03-20T14:42:41;100319.09;;;18.47;52.26
56514;BME280;62152;52.078;8.414;2023-03-20T14:46:54;100315.97;;;18.49;51.95
56514;BME280;62152;52.078;8.414;2023-03-20T14:51:15;100326.16;;;18.48;51.95
56514;BME280;62152;52.078;8.414;2023-03-20T14:55:31;100304.56;;;18.47;52.14
56514;BME280;62152;52.078;8.414;2023-03-20T14:59:47;100312.81;;;18.47;52.55
56514;BME280;62152;52.078;8.414;2023-03-20T15:03:52;100312.81;;;18.47;51.85
56514;BME280;62152;52.078;8.414;2023-03-20T15:08:04;100315.88;;;18.45;52.39
56514;BME280;62152;52.078;8.414;2023-03-20T15:12:13;100314.31;;;18.44;52.13
56514;BME280;62152;52.078;8.414;2023-03-20T15:16:16;100308.03;;;18.44;52.60
56514;BME280;62152;52.078;8.414;2023-03-20T15:20:26;100300.56;;;18.44;52.52
56514;BME280;62152;52.078;8.414;2023-03-20T15:24:29;100310.75;;;18.44;52.43
56514;BME280;62152;52.078;8.414;2023-03-20T15:28:29;100300.94;;;18.43;52.05
56514;BME280;62152;52.078;8.414;2023-03-20T15:32:32;100295.44;;;18.43;52.30
56514;BME280;62152;52.078;8.414;2023-03-20T15:36:35;100299.78;;;18.44;52.10
56514;BME280;62152;52.078;8.414;2023-03-20T15:40:41;100290.38;;;18.45;52.18
56514;BME280;62152;52.078;8.414;2023-03-20T15:44:45;100289.97;;;18.43;52.00
56514;BME280;62152;52.078;8.414;2023-03-20T15:48:47;100284.06;;;18.41;52.40
56514;BME280;62152;52.078;8.414;2023-03-20T15:52:50;100276.22;;;18.43;52.02
56514;BME280;62152;52.078;8.414;2023-03-20T15:56:56;100287.22;;;18.43;52.41
56514;BME280;62152;52.078;8.414;2023-03-20T16:00:59;100275.81;;;18.41;52.47
56514;BME280;62152;52.078;8.414;2023-03-20T16:05:02;100276.59;;;18.41;52.50
56514;BME280;62152;52.078;8.414;2023-03-20T16:09:06;100272.69;;;18.42;52.20
56514;BME280;62152;52.078;8.414;2023-03-20T16:13:13;100274.28;;;18.43;52.20
56514;BME280;62152;52.078;8.414;2023-03-20T16:17:18;100274.66;;;18.42;52.35
56514;BME280;62152;52.078;8.414;2023-03-20T16:21:27;100274.22;;;18.40;52.26
56514;BME280;62152;52.078;8.414;2023-03-20T16:25:31;100281.69;;;18.39;52.38
56514;BME280;62152;52.078;8.414;2023-03-20T16:29:35;100284.75;;;18.38;52.63
56514;BME280;62152;52.078;8.414;2023-03-20T16:33:43;100283.59;;;18.39;52.34
56514;BME280;62152;52.078;8.414;2023-03-20T16:37:48;100271.81;;;18.38;52.22
56514;BME280;62152;52.078;8.414;2023-03-20T16:42:17;100271.03;;;18.38;52.79
56514;BME280;62152;52.078;8.414;2023-03-20T16:46:26;100271.03;;;18.38;52.76
56514;BME280;62152;52.078;8.414;2023-03-20T16:50:34;100280.50;;;18.40;52.13
56514;BME280;62152;52.078;8.414;2023-03-20T16:54:37;100275.72;;;18.37;52.33
56514;BME280;62152;52.078;8.414;2023-03-20T16:58:39;100274.56;;;18.38;52.40
56514;BME280;62152;52.078;8.414;2023-03-20T17:02:41;100280.00;;;18.35;52.79
56514;BME280;62152;52.078;8.414;2023-03-20T17:06:52;100287.09;;;18.36;52.63
56514;BME280;62152;52.078;8.414;2023-03-20T17:10:59;100294.53;;;18.35;52.81
56514;BME280;62152;52.078;8.414;2023-03-20T17:15:05;100292.16;;;18.34;52.45
56514;BME280;62152;52.078;8.414;2023-03-20T17:19:13;100292.16;;;18.34;52.45
56514;BME280;62152;52.078;8.414;2023-03-20T17:23:19;100296.88;;;18.33;52.57
56514;BME280;62152;52.078;8.414;2023-03-20T17:27:21;100290.59;;;18.33;52.36
56514;BME280;62152;52.078;8.414;2023-03-20T17:31:22;100295.25;;;18.32;52.89
56514;BME280;62152;52.078;8.414;2023-03-20T17:35:25;100306.03;;;18.41;53.04
56514;BME280;62152;52.078;8.414;2023-03-20T17:39:25;100305.34;;;18.47;52.42
56514;BME280;62152;52.078;8.414;2023-03-20T17:43:26;100303.09;;;18.53;52.90
56514;BME280;62152;52.078;8.414;2023-03-20T17:47:28;100308.25;;;18.58;52.87
56514;BME280;62152;52.078;8.414;2023-03-20T17:51:31;100299.66;;;18.59;52.08
56514;BME280;62152;52.078;8.414;2023-03-20T17:55:32;100305.22;;;18.63;52.50
56514;BME280;62152;52.078;8.414;2023-03-20T17:59:33;100310.44;;;18.68;51.91
56514;BME280;62152;52.078;8.414;2023-03-20T18:03:34;100310.94;;;18.74;52.34
56514;BME280;62152;52.078;8.414;2023-03-20T18:07:36;100312.94;;;18.77;51.70
56514;BME280;62152;52.078;8.414;2023-03-20T18:11:37;100313.34;;;18.79;51.48
56514;BME280;62152;52.078;8.414;2023-03-20T18:15:38;100316.59;;;18.84;51.59
56514;BME280;62152;52.078;8.414;2023-03-20T18:19:41;100305.59;;;18.84;52.24
56514;BME280;62152;52.078;8.414;2023-03-20T18:23:44;100320.69;;;18.94;51.93
56514;BME280;62152;52.078;8.414;2023-03-20T18:27:46;100315.38;;;18.82;52.75
56514;BME280;62152;52.078;8.414;2023-03-20T18:31:47;100318.72;;;18.72;52.46
56514;BME280;62152;52.078;8.414;2023-03-20T18:35:48;100316.31;;;18.67;52.34
56514;BME280;62152;52.078;8.414;2023-03-20T18:39:50;100315.41;;;18.63;52.44
56514;BME280;62152;52.078;8.414;2023-03-20T18:43:51;100320.53;;;18.64;53.36
56514;BME280;62152;52.078;8.414;2023-03-20T18:47:53;100317.94;;;18.71;52.88
56514;BME280;62152;52.078;8.414;2023-03-20T18:51:54;100329.69;;;18.68;53.04
56514;BME280;62152;52.078;8.414;2023-03-20T18:55:56;100322.13;;;18.65;53.02
56514;BME280;62152;52.078;8.414;2023-03-20T18:59:57;100324.03;;;18.61;52.96
56514;BME280;62152;52.078;8.414;2023-03-20T19:03:58;100321.81;;;18.67;52.92
56514;BME280;62152;52.078;8.414;2023-03-20T19:07:59;100326.19;;;18.71;52.27
56514;BME280;62152;52.078;8.414;2023-03-20T19:12:01;100322.28;;;18.72;52.57
56514;BME280;62152;52.078;8.414;2023-03-20T19:16:02;100321.56;;;18.75;52.72
56514;BME280;62152;52.078;8.414;2023-03-20T19:20:05;100315.69;;;18.77;52.53
56514;BME280;62152;52.078;8.414;2023-03-20T19:24:21;100310.97;;;18.77;52.35
56514;BME280;62152;52.078;8.414;2023-03-20T19:28:25;100307.84;;;18.79;52.48
56514;BME280;62152;52.078;8.414;2023-03-20T19:32:27;100303.16;;;18.79;52.60
56514;BME280;62152;52.078;8.414;2023-03-20T19:36:29;100307.84;;;18.79;53.10
56514;BME280;62152;52.078;8.414;2023-03-20T19:40:33;100307.44;;;18.77;53.31
56514;BME280;62152;52.078;8.414;2023-03-20T19:44:38;100300.38;;;18.76;53.58
56514;BME280;62152;52.078;8.414;2023-03-20T19:48:39;100302.31;;;18.75;53.57
56514;BME280;62152;52.078;8.414;2023-03-20T19:52:40;100298.81;;;18.78;53.29
56514;BME280;62152;52.078;8.414;2023-03-20T19:56:41;100295.69;;;18.80;52.88
56514;BME280;62152;52.078;8.414;2023-03-20T20:00:43;100294.97;;;18.83;52.87
56514;BME280;62152;52.078;8.414;2023-03-20T20:04:44;100296.94;;;18.82;53.44
56514;BME280;62152;52.078;8.414;2023-03-20T20:08:45;100285.19;;;18.85;53.27
56514;BME280;62152;52.078;8.414;2023-03-20T20:12:46;100292.66;;;18.85;53.52
56514;BME280;62152;52.078;8.414;2023-03-20T20:16:48;100280.88;;;18.84;53.29
56514;BME280;62152;52.078;8.414;2023-03-20T20:20:50;100284.78;;;18.83;53.72
56514;BME280;62152;52.078;8.414;2023-03-20T20:24:51;100285.97;;;18.86;53.64
56514;BME280;62152;52.078;8.414;2023-03-20T20:28:52;100280.06;;;18.84;53.34
56514;BME280;62152;52.078;8.414;2023-03-20T20:32:54;100273.03;;;18.86;53.92
56514;BME280;62152;52.078;8.414;2023-03-20T20:36:55;100271.06;;;18.87;53.39
56514;BME280;62152;52.078;8.414;2023-03-20T20:40:56;100274.19;;;18.85;53.32
56514;BME280;62152;52.078;8.414;2023-03-20T20:44:57;100267.53;;;18.86;53.87
56514;BME280;62152;52.078;8.414;2023-03-20T20:48:59;100265.22;;;18.89;53.70
56514;BME280;62152;52.078;8.414;2023-03-20T20:53:00;100261.31;;;18.90;53.75
56514;BME280;62152;52.078;8.414;2023-03-20T20:57:01;100254.25;;;18.89;53.48
56514;BME280;62152;52.078;8.414;2023-03-20T21:01:03;100266.41;;;18.88;53.37
56514;BME280;62152;52.078;8.414;2023-03-20T21:05:06;100271.06;;;18.87;53.65
56514;BME280;62152;52.078;8.414;2023-03-20T21:09:08;100263.22;;;18.85;53.49
56514;BME280;62152;52.078;8.414;2023-03-20T21:13:09;100247.16;;;18.88;52.90
56514;BME280;62152;52.078;8.414;2023-03-20T21:17:10;100253.78;;;18.86;52.99
56514;BME280;62152;52.078;8.414;2023-03-20T21:21:13;100254.59;;;18.87;52.41
56514;BME280;62152;52.078;8.414;2023-03-20T21:25:15;100237.69;;;18.85;52.15
56514;BME280;62152;52.078;8.414;2023-03-20T21:29:16;100248.69;;;18.85;52.28
56514;BME280;62152;52.078;8.414;2023-03-20T21:33:17;100235.69;;;18.82;52.51
56514;BME280;62152;52.078;8.414;2023-03-20T21:37:19;100251.72;;;18.80;52.19
56514;BME280;62152;52.078;8.414;2023-03-20T21:41:20;100239.53;;;18.77;52.61